Time;durP1;ratioP1;P1;durP2;ratioP2;P2;SDS_P1;SDS_P2;PMS_P1;PMS_P2;Temp;Humidity;BMP_temperature;BMP_pressure;BME280_temperature;BME280_humidity;BME280_pressure;Samples;Min_cycle;Max_cycle;Signal;HPM_P1;HPM_P2
2023/06/20 00:00:24;;;;;;;;;4.25;1.00;;;;;-143.57;100.00;65101.44;5099034;27;45292;-44
2023/06/20 00:02:49;;;;;;;;;3.00;2.00;;;;;-143.57;100.00;65101.44;5098943;27;45387;-45
2023/06/20 00:05:14;;;;;;;;;3.00;1.50;;;;;-143.57;100.00;65101.44;5099375;27;45507;-44
2023/06/20 00:07:39;;;;;;;;;2.50;2.50;;;;;-143.57;100.00;65101.44;5098474;27;46212;-43
2023/06/20 00:10:05;;;;;;;;;2.50;2.00;;;;;-143.57;100.00;65101.44;5098770;27;45479;-42
2023/06/20 00:12:31;;;;;;;;;3.00;2.00;;;;;-143.57;100.00;65101.44;5098773;27;45391;-44
2023/06/20 00:14:57;;;;;;;;;2.00;2.00;;;;;-143.57;100.00;65101.44;5098912;27;45414;-45
2023/06/20 00:17:25;;;;;;;;;2.00;2.00;;;;;-143.57;100.00;65101.44;5098622;27;46189;-44
2023/06/20 00:19:51;;;;;;;;;2.60;1.00;;;;;-143.57;100.00;65101.44;5098371;27;45405;-43
2023/06/20 00:22:16;;;;;;;;;1.75;1.75;;;;;-143.57;100.00;65101.44;5098954;27;45201;-44
2023/06/20 00:24:41;;;;;;;;;3.75;3.00;;;;;-143.57;100.00;65101.44;5098985;27;45286;-45
2023/06/20 00:27:07;;;;;;;;;3.00;3.00;;;;;-143.57;100.00;65101.44;5098460;27;45410;-43
2023/06/20 00:29:32;;;;;;;;;6.25;3.00;;;;;-143.57;100.00;65101.44;5098462;27;45401;-45
2023/06/20 00:31:57;;;;;;;;;3.00;3.00;;;;;-143.57;100.00;65101.44;5098719;27;45880;-45
2023/06/20 00:34:23;;;;;;;;;2.50;2.00;;;;;-143.57;100.00;65101.44;5099041;27;45227;-44
2023/06/20 00:36:48;;;;;;;;;4.75;2.50;;;;;-143.57;100.00;65101.44;5098477;27;46297;-43
2023/06/20 00:39:13;;;;;;;;;4.50;3.00;;;;;-143.57;100.00;65101.44;5098626;27;45203;-44
2023/06/20 00:41:39;;;;;;;;;2.50;2.00;;;;;-143.57;100.00;65101.44;5098639;27;45213;-44
2023/06/20 00:44:05;;;;;;;;;6.00;2.00;;;;;-143.57;100.00;65101.44;5098742;27;45329;-45
2023/06/20 00:46:32;;;;;;;;;3.00;3.00;;;;;-143.57;100.00;65101.44;5098562;27;46026;-45
2023/06/20 00:49:03;;;;;;;;;2.00;2.00;;;;;-143.57;100.00;65101.44;5098202;27;45314;-44
2023/06/20 00:51:29;;;;;;;;;2.50;1.00;;;;;-143.57;100.00;65101.44;5098446;27;45260;-44
2023/06/20 00:53:56;;;;;;;;;3.50;2.00;;;;;-143.57;100.00;65101.44;5097907;27;45604;-45
2023/06/20 00:56:24;;;;;;;;;2.00;2.00;;;;;-143.57;100.00;65101.44;5098109;27;45969;-42
2023/06/20 00:58:49;;;;;;;;;3.60;2.40;;;;;-143.57;100.00;65101.44;5098088;27;45238;-44
2023/06/20 01:01:18;;;;;;;;;2.75;2.75;;;;;-143.57;100.00;65101.44;5098033;27;45745;-42
2023/06/20 01:03:46;;;;;;;;;5.00;2.00;;;;;-143.57;100.00;65101.44;5098610;27;45365;-44
2023/06/20 01:06:42;;;;;;;;;3.25;3.00;;;;;-143.57;100.00;65101.44;5098312;27;46180;-43
2023/06/20 01:09:40;;;;;;;;;2.00;2.00;;;;;-143.57;100.00;65101.44;5097911;27;45449;-44
2023/06/20 01:12:19;;;;;;;;;3.00;2.00;;;;;-143.57;100.00;65101.44;5098118;27;45419;-45
2023/06/20 01:15:14;;;;;;;;;5.75;2.75;;;;;-143.57;100.00;65101.44;5098185;27;45398;-49
2023/06/20 01:17:48;;;;;;;;;2.00;2.00;;;;;-143.57;100.00;65101.44;5066315;27;45734;-43
2023/06/20 01:20:33;;;;;;;;;3.60;3.60;;;;;-143.57;100.00;65101.44;5097871;27;45273;-45
2023/06/20 01:23:16;;;;;;;;;3.00;1.20;;;;;-143.57;100.00;65101.44;5098245;27;45320;-42
2023/06/20 01:25:51;;;;;;;;;5.25;3.00;;;;;-143.57;100.00;65101.44;5098277;27;45318;-44
2023/06/20 01:28:41;;;;;;;;;3.00;2.25;;;;;-143.57;100.00;65101.44;5076749;28;46372;-44
2023/06/20 01:31:27;;;;;;;;;2.00;2.00;;;;;-143.57;100.00;65101.44;5077325;28;45327;-45
2023/06/20 01:34:11;;;;;;;;;2.60;1.60;;;;;-143.57;100.00;65101.44;5077482;28;45265;-43
2023/06/20 01:36:42;;;;;;;;;5.00;3.25;;;;;-143.57;100.00;65101.44;5077144;28;45300;-44
2023/06/20 01:39:23;;;;;;;;;2.75;2.25;;;;;-143.57;100.00;65101.44;5077118;28;45862;-43
2023/06/20 01:41:50;;;;;;;;;3.60;3.00;;;;;-143.57;100.00;65101.44;5077191;28;45477;-45
2023/06/20 01:44:17;;;;;;;;;1.80;1.80;;;;;-143.57;100.00;65101.44;5077312;28;45273;-44
2023/06/20 01:46:46;;;;;;;;;6.25;2.00;;;;;-143.57;100.00;65101.44;5077477;28;45360;-44
2023/06/20 01:49:12;;;;;;;;;2.75;2.75;;;;;-143.57;100.00;65101.44;5077204;28;45368;-42
2023/06/20 01:51:39;;;;;;;;;6.00;3.00;;;;;-143.57;100.00;65101.44;5077205;28;45436;-42
2023/06/20 01:54:07;;;;;;;;;3.80;2.00;;;;;-143.57;100.00;65101.44;5076831;28;45412;-43
2023/06/20 01:56:33;;;;;;;;;3.75;3.75;;;;;-143.57;100.00;65101.44;5077717;28;45320;-45
2023/06/20 01:59:01;;;;;;;;;3.25;3.25;;;;;-143.57;100.00;65101.44;5076895;28;45925;-44
2023/06/20 02:01:29;;;;;;;;;2.00;2.00;;;;;-143.57;100.00;65101.44;5077023;28;45341;-43
2023/06/20 02:03:56;;;;;;;;;2.00;2.00;;;;;-143.57;100.00;65101.44;5077222;28;45351;-44
2023/06/20 02:06:23;;;;;;;;;3.75;2.75;;;;;-143.57;100.00;65101.44;5077279;28;45356;-44
2023/06/20 02:08:51;;;;;;;;;3.25;2.50;;;;;-143.57;100.00;65101.44;5076792;28;46367;-44
2023/06/20 02:11:19;;;;;;;;;3.00;3.00;;;;;-143.57;100.00;65101.44;5076889;28;45483;-43
2023/06/20 02:13:48;;;;;;;;;4.60;3.00;;;;;-143.57;100.00;65101.44;5077112;28;45472;-42
2023/06/20 02:16:16;;;;;;;;;6.00;4.00;;;;;-143.57;100.00;65101.44;5080426;28;45419;-44
2023/06/20 02:18:41;;;;;;;;;4.00;3.00;;;;;-143.57;100.00;65101.44;5080218;28;46505;-43
2023/06/20 02:21:13;;;;;;;;;3.75;2.00;;;;;-143.57;100.00;65101.44;5080307;28;45418;-43
2023/06/20 02:23:40;;;;;;;;;3.00;3.00;;;;;-143.57;100.00;65101.44;5080494;28;45345;-44
2023/06/20 02:26:11;;;;;;;;;4.00;2.50;;;;;-143.57;100.00;65101.44;5083498;27;45340;-44
2023/06/20 02:28:44;;;;;;;;;3.60;3.60;;;;;-143.57;100.00;65101.44;5082195;27;45498;-42
2023/06/20 02:31:14;;;;;;;;;2.40;2.40;;;;;-143.57;100.00;65101.44;5100356;27;45369;-43
2023/06/20 02:33:42;;;;;;;;;5.00;5.00;;;;;-143.57;100.00;65101.44;5100786;27;45276;-44
2023/06/20 02:36:08;;;;;;;;;6.00;4.50;;;;;-143.57;100.00;65101.44;5099834;27;45429;-42
2023/06/20 02:38:34;;;;;;;;;5.25;3.25;;;;;-143.57;100.00;65101.44;5100625;27;45418;-44
2023/06/20 02:40:59;;;;;;;;;5.25;3.50;;;;;-143.57;100.00;65101.44;5100417;27;45364;-43
2023/06/20 02:43:24;;;;;;;;;3.00;3.00;;;;;-143.57;100.00;65101.44;5100562;27;45327;-44
2023/06/20 02:45:56;;;;;;;;;6.25;4.25;;;;;-143.57;100.00;65101.44;5100528;27;45508;-42
2023/06/20 02:48:47;;;;;;;;;3.60;3.60;;;;;-143.57;100.00;65101.44;5100275;27;45282;-42
2023/06/20 02:51:21;;;;;;;;;5.00;4.40;;;;;-143.57;100.00;65101.44;5099919;27;45334;-43
2023/06/20 02:54:14;;;;;;;;;3.00;3.00;;;;;-143.57;100.00;65101.44;5100486;27;45234;-43
2023/06/20 02:56:43;;;;;;;;;4.75;4.50;;;;;-143.57;100.00;65101.44;5100610;27;45312;-44
2023/06/20 02:59:12;;;;;;;;;5.50;3.75;;;;;-143.57;100.00;65101.44;5100383;27;46229;-43
2023/06/20 03:01:39;;;;;;;;;6.80;4.00;;;;;-143.57;100.00;65101.44;5081662;27;45459;-42
2023/06/20 03:04:06;;;;;;;;;4.00;3.00;;;;;-143.57;100.00;65101.44;5100111;27;45347;-43
2023/06/20 03:06:34;;;;;;;;;4.25;4.25;;;;;-143.57;100.00;65101.44;5100728;27;45330;-44
2023/06/20 03:09:02;;;;;;;;;4.00;3.50;;;;;-143.57;100.00;65101.44;5100006;27;45336;-45
2023/06/20 03:11:27;;;;;;;;;4.00;3.80;;;;;-143.57;100.00;65101.44;5100103;27;45374;-44
2023/06/20 03:13:53;;;;;;;;;4.75;4.75;;;;;-143.57;100.00;65101.44;5100353;27;45671;-45
2023/06/20 03:16:18;;;;;;;;;6.25;5.00;;;;;-143.57;100.00;65101.44;5100259;27;45406;-46
2023/06/20 03:18:47;;;;;;;;;5.75;3.00;;;;;-143.57;100.00;65101.44;5081187;27;46236;-45
2023/06/20 03:21:12;;;;;;;;;5.80;5.00;;;;;-143.57;100.00;65101.44;5100025;27;45232;-45
2023/06/20 03:23:38;;;;;;;;;5.50;5.50;;;;;-143.57;100.00;65101.44;5100168;27;45620;-45
2023/06/20 03:26:04;;;;;;;;;5.50;4.00;;;;;-143.57;100.00;65101.44;5099097;27;45343;-46
2023/06/20 03:28:29;;;;;;;;;4.00;4.00;;;;;-143.57;100.00;65101.44;5099628;27;47050;-46
2023/06/20 03:30:55;;;;;;;;;4.00;3.25;;;;;-143.57;100.00;65101.44;5099963;27;45380;-45
2023/06/20 03:33:20;;;;;;;;;6.75;6.75;;;;;-143.57;100.00;65101.44;5099983;27;47902;-45
2023/06/20 03:35:46;;;;;;;;;6.00;5.00;;;;;-143.57;100.00;65101.44;5100662;27;45364;-44
2023/06/20 03:38:12;;;;;;;;;5.75;4.75;;;;;-143.57;100.00;65101.44;5099729;27;46160;-45
2023/06/20 03:40:37;;;;;;;;;6.00;5.40;;;;;-143.57;100.00;65101.44;5081046;27;45388;-45
2023/06/20 03:43:02;;;;;;;;;5.00;5.00;;;;;-143.57;100.00;65101.44;5100162;27;45289;-45
2023/06/20 03:45:28;;;;;;;;;9.00;6.00;;;;;-143.57;100.00;65101.44;5099666;27;45300;-43
2023/06/20 03:47:53;;;;;;;;;6.50;6.50;;;;;-143.57;100.00;65101.44;5099339;27;46638;-43
2023/06/20 03:50:19;;;;;;;;;7.00;5.50;;;;;-143.57;100.00;65101.44;5099196;27;45349;-43
2023/06/20 03:52:44;;;;;;;;;3.00;3.00;;;;;-143.57;100.00;65101.44;5099220;27;45348;-43
2023/06/20 03:55:09;;;;;;;;;7.00;6.00;;;;;-143.57;100.00;65101.44;5099995;27;45468;-44
2023/06/20 03:57:35;;;;;;;;;6.25;5.75;;;;;-143.57;100.00;65101.44;5099060;27;45418;-44
2023/06/20 04:00:01;;;;;;;;;8.00;6.25;;;;;-143.57;100.00;65101.44;5099082;27;45407;-43
2023/06/20 04:02:27;;;;;;;;;4.50;4.50;;;;;-143.57;100.00;65101.44;5099242;27;45300;-43
2023/06/20 04:04:52;;;;;;;;;4.00;4.00;;;;;-143.57;100.00;65101.44;5099119;27;45271;-43
2023/06/20 04:07:20;;;;;;;;;7.25;5.25;;;;;-143.57;100.00;65101.44;5098933;27;52173;-44
2023/06/20 04:09:46;;;;;;;;;2.00;1.00;;;;;-143.57;100.00;65101.44;5098764;27;45332;-44
2023/06/20 04:12:13;;;;;;;;;7.00;4.75;;;;;-143.57;100.00;65101.44;5099280;27;45297;-46
2023/06/20 04:14:38;;;;;;;;;7.50;6.00;;;;;-143.57;100.00;65101.44;5099034;27;45367;-42
2023/06/20 04:17:04;;;;;;;;;7.50;6.00;;;;;-143.57;100.00;65101.44;5098429;27;50068;-42
2023/06/20 04:19:29;;;;;;;;;5.50;5.50;;;;;-143.57;100.00;65101.44;5098937;27;45355;-43
2023/06/20 04:21:54;;;;;;;;;6.25;3.75;;;;;-143.57;100.00;65101.44;5098674;27;45400;-42
2023/06/20 04:24:20;;;;;;;;;10.00;6.50;;;;;-143.57;100.00;65101.44;5098976;27;45403;-42
2023/06/20 04:26:45;;;;;;;;;6.25;5.00;;;;;-143.57;100.00;65101.44;5098416;27;45361;-44
2023/06/20 04:29:10;;;;;;;;;5.50;5.50;;;;;-143.57;100.00;65101.44;5098574;27;45417;-42
2023/06/20 04:31:35;;;;;;;;;9.50;5.75;;;;;-143.57;100.00;65101.44;5098495;27;45254;-42
2023/06/20 04:34:01;;;;;;;;;7.25;6.00;;;;;-143.57;100.00;65101.44;5098950;27;45638;-45
2023/06/20 04:36:29;;;;;;;;;7.25;4.50;;;;;-143.57;100.00;65101.44;5098425;27;46985;-44
2023/06/20 04:38:55;;;;;;;;;11.00;5.60;;;;;-143.57;100.00;65101.44;5098254;27;45288;-45
2023/06/20 04:41:20;;;;;;;;;6.25;4.50;;;;;-143.57;100.00;65101.44;5098600;27;45190;-42
2023/06/20 04:43:45;;;;;;;;;6.50;4.25;;;;;-143.57;100.00;65101.44;5098474;27;45402;-43
2023/06/20 04:46:15;;;;;;;;;4.75;4.75;;;;;-143.57;100.00;65101.44;5098035;27;46051;-42
2023/06/20 04:48:41;;;;;;;;;6.00;5.00;;;;;-143.57;100.00;65101.44;5098036;27;45390;-46
2023/06/20 04:51:08;;;;;;;;;11.75;7.00;;;;;-143.57;100.00;65101.44;5098524;27;45368;-44
2023/06/20 04:53:35;;;;;;;;;9.75;8.25;;;;;-143.57;100.00;65101.44;5098596;27;45387;-41
2023/06/20 04:56:00;;;;;;;;;5.75;5.00;;;;;-143.57;100.00;65101.44;5097592;27;45331;-43
2023/06/20 04:58:28;;;;;;;;;7.25;5.25;;;;;-143.57;100.00;65101.44;5098626;27;45368;-43
2023/06/20 05:00:58;;;;;;;;;8.25;7.00;;;;;-143.57;100.00;65101.44;5098284;27;45352;-43
2023/06/20 05:03:24;;;;;;;;;6.00;5.00;;;;;-143.57;100.00;65101.44;5098314;27;45401;-42
2023/06/20 05:05:50;;;;;;;;;9.00;6.00;;;;;-143.57;100.00;65101.44;5097732;27;46208;-42
2023/06/20 05:08:16;;;;;;;;;5.00;5.00;;;;;-143.57;100.00;65101.44;5097604;27;45517;-44
2023/06/20 05:10:41;;;;;;;;;8.00;6.00;;;;;-143.57;100.00;65101.44;5079331;27;45445;-42
2023/06/20 05:13:07;;;;;;;;;7.00;4.50;;;;;-143.57;100.00;65101.44;5098302;27;45390;-43
2023/06/20 05:15:32;;;;;;;;;10.00;5.00;;;;;-143.57;100.00;65101.44;5097887;27;47068;-41
2023/06/20 05:17:58;;;;;;;;;7.00;6.25;;;;;-143.57;100.00;65101.44;5097643;27;45477;-44
2023/06/20 05:20:23;;;;;;;;;7.00;5.25;;;;;-143.57;100.00;65101.44;5097497;27;45634;-43
2023/06/20 05:22:49;;;;;;;;;5.25;4.75;;;;;-143.57;100.00;65101.44;5098139;27;45367;-43
2023/06/20 05:25:14;;;;;;;;;7.75;7.25;;;;;-143.57;100.00;65101.44;5097577;27;46176;-43
2023/06/20 05:27:40;;;;;;;;;6.75;6.00;;;;;-143.57;100.00;65101.44;5097580;27;45395;-42
2023/06/20 05:30:06;;;;;;;;;8.75;7.00;;;;;-143.57;100.00;65101.44;5097526;27;45345;-42
2023/06/20 05:32:31;;;;;;;;;9.25;7.00;;;;;-143.57;100.00;65101.44;5097711;27;45407;-44
2023/06/20 05:34:56;;;;;;;;;9.00;6.75;;;;;-143.57;100.00;65101.44;5097580;27;45563;-43
2023/06/20 05:37:22;;;;;;;;;9.00;6.75;;;;;-143.57;100.00;65101.44;5097619;27;45418;-45
2023/06/20 05:39:47;;;;;;;;;9.00;7.75;;;;;-143.57;100.00;65101.44;5097506;27;47478;-44
2023/06/20 05:42:13;;;;;;;;;9.25;7.75;;;;;-143.57;100.00;65101.44;5097707;27;45487;-45
2023/06/20 05:44:38;;;;;;;;;9.75;7.50;;;;;-143.57;100.00;65101.44;5097475;27;47372;-43
2023/06/20 05:47:05;;;;;;;;;9.50;8.00;;;;;-143.57;100.00;65101.44;5097516;27;45202;-44
2023/06/20 05:49:30;;;;;;;;;11.80;8.20;;;;;-143.57;100.00;65101.44;5096596;27;45395;-42
2023/06/20 05:51:57;;;;;;;;;10.50;6.75;;;;;-143.57;100.00;65101.44;5097824;27;45266;-43
2023/06/20 05:54:22;;;;;;;;;10.00;9.00;;;;;-143.57;100.00;65101.44;5097355;27;46349;-43
2023/06/20 05:56:52;;;;;;;;;8.00;7.00;;;;;-143.57;100.00;65101.44;5097368;27;45280;-43
2023/06/20 05:59:17;;;;;;;;;7.20;7.20;;;;;-143.57;100.00;65101.44;5097662;27;45439;-44
2023/06/20 06:01:44;;;;;;;;;7.00;7.00;;;;;-143.57;100.00;65101.44;5097482;27;45307;-42
2023/06/20 06:04:10;;;;;;;;;8.00;6.00;;;;;-143.57;100.00;65101.44;5097120;27;46963;-43
2023/06/20 06:06:36;;;;;;;;;7.20;7.00;;;;;-143.57;100.00;65101.44;5078995;27;45280;-41
2023/06/20 06:09:02;;;;;;;;;10.00;8.00;;;;;-143.57;100.00;65101.44;5097191;27;45424;-43
2023/06/20 06:11:28;;;;;;;;;10.00;7.25;;;;;-143.57;100.00;65101.44;5097457;27;45367;-45
2023/06/20 06:13:53;;;;;;;;;8.75;7.50;;;;;-143.57;100.00;65101.44;5096968;27;46186;-43
2023/06/20 06:16:18;;;;;;;;;10.00;7.00;;;;;-143.57;100.00;65101.44;5096940;27;45393;-44
2023/06/20 06:18:44;;;;;;;;;8.25;7.00;;;;;-143.57;100.00;65101.44;5096933;27;45340;-45
2023/06/20 06:21:09;;;;;;;;;11.00;10.75;;;;;-143.57;100.00;65101.44;5079113;27;45317;-44
2023/06/20 06:23:35;;;;;;;;;10.25;7.50;;;;;-143.57;100.00;65101.44;5097283;27;46850;-43
2023/06/20 06:26:02;;;;;;;;;9.00;7.50;;;;;-143.57;100.00;65101.44;5096949;27;45716;-44
2023/06/20 06:28:28;;;;;;;;;9.40;9.20;;;;;-143.57;100.00;65101.44;5096890;27;45371;-43
2023/06/20 06:30:54;;;;;;;;;11.00;9.50;;;;;-143.57;100.00;65101.44;5097386;27;45430;-44
2023/06/20 06:33:20;;;;;;;;;11.40;9.00;;;;;-143.57;100.00;65101.44;5096532;27;47093;-42
2023/06/20 06:35:46;;;;;;;;;10.00;9.00;;;;;-143.57;100.00;65101.44;5097006;27;45382;-44
2023/06/20 06:38:13;;;;;;;;;8.80;8.00;;;;;-143.57;100.00;65101.44;5097087;27;45246;-42
2023/06/20 06:40:38;;;;;;;;;10.40;7.40;;;;;-143.57;100.00;65101.44;5097048;27;45518;-43
2023/06/20 06:43:04;;;;;;;;;12.00;10.75;;;;;-143.57;100.00;65101.44;5097021;27;46448;-42
2023/06/20 06:45:29;;;;;;;;;11.75;9.00;;;;;-143.57;100.00;65101.44;5096873;27;45300;-44
2023/06/20 06:47:55;;;;;;;;;13.50;11.25;;;;;-143.57;100.00;65101.44;5097135;27;45309;-44
2023/06/20 06:50:20;;;;;;;;;14.00;11.00;;;;;-143.57;100.00;65101.44;5096958;27;45466;-45
2023/06/20 06:52:45;;;;;;;;;9.75;9.00;;;;;-143.57;100.00;65101.44;5096502;27;45445;-43
2023/06/20 06:55:11;;;;;;;;;12.25;11.75;;;;;-143.57;100.00;65101.44;5096725;27;45396;-45
2023/06/20 06:57:36;;;;;;;;;11.75;10.25;;;;;-143.57;100.00;65101.44;5096952;27;45348;-45
2023/06/20 07:00:07;;;;;;;;;11.00;11.00;;;;;-143.57;100.00;65101.44;5078781;27;45399;-43
2023/06/20 07:02:34;;;;;;;;;11.60;11.60;;;;;-143.57;100.00;65101.44;5100025;27;47081;-44
2023/06/20 07:05:00;;;;;;;;;8.50;7.25;;;;;-143.57;100.00;65101.44;5099869;27;49838;-42
2023/06/20 07:07:25;;;;;;;;;13.75;12.75;;;;;-143.57;100.00;65101.44;5100354;27;45344;-44
2023/06/20 07:09:50;;;;;;;;;11.50;10.25;;;;;-143.57;100.00;65101.44;5081886;27;45484;-45
2023/06/20 07:12:15;;;;;;;;;13.00;12.25;;;;;-143.57;100.00;65101.44;5099897;27;46155;-44
2023/06/20 07:14:41;;;;;;;;;16.00;12.00;;;;;-143.57;100.00;65101.44;5099905;27;45462;-44
2023/06/20 07:17:06;;;;;;;;;12.75;8.75;;;;;-143.57;100.00;65101.44;5100136;27;45272;-45
2023/06/20 07:19:31;;;;;;;;;12.50;12.00;;;;;-143.57;100.00;65101.44;5100215;27;45550;-44
2023/06/20 07:21:57;;;;;;;;;11.25;10.25;;;;;-143.57;100.00;65101.44;5099771;27;45943;-43
2023/06/20 07:24:23;;;;;;;;;11.25;8.75;;;;;-143.57;100.00;65101.44;5099754;27;45363;-44
2023/06/20 07:26:48;;;;;;;;;11.75;11.00;;;;;-143.57;100.00;65101.44;5099790;27;45352;-45
2023/06/20 07:29:13;;;;;;;;;13.25;13.25;;;;;-143.57;100.00;65101.44;5099866;27;45237;-44
2023/06/20 07:31:38;;;;;;;;;16.00;10.25;;;;;-143.57;100.00;65101.44;5099657;27;50430;-43
2023/06/20 07:34:04;;;;;;;;;17.25;13.25;;;;;-143.57;100.00;65101.44;5099223;27;45324;-43
2023/06/20 07:36:29;;;;;;;;;13.00;11.75;;;;;-143.57;100.00;65101.44;5099608;27;45375;-42
2023/06/20 07:38:54;;;;;;;;;13.25;12.25;;;;;-143.57;100.00;65101.44;5099709;27;45229;-43
2023/06/20 07:41:20;;;;;;;;;14.25;11.50;;;;;-143.57;100.00;65101.44;5099295;27;46048;-44
2023/06/20 07:43:45;;;;;;;;;17.50;13.75;;;;;-143.57;100.00;65101.44;5099192;27;52035;-42
2023/06/20 07:46:10;;;;;;;;;17.75;14.50;;;;;-143.57;100.00;65101.44;5099384;27;45681;-44
2023/06/20 07:48:36;;;;;;;;;14.50;13.00;;;;;-143.57;100.00;65101.44;5099495;27;45570;-42
2023/06/20 07:51:01;;;;;;;;;14.00;12.25;;;;;-143.57;100.00;65101.44;5099381;27;47042;-42
2023/06/20 07:53:26;;;;;;;;;15.75;13.25;;;;;-143.57;100.00;65101.44;5099061;27;45416;-43
2023/06/20 07:55:55;;;;;;;;;20.50;14.00;;;;;-143.57;100.00;65101.44;5099470;27;45346;-43
2023/06/20 07:58:21;;;;;;;;;11.60;10.60;;;;;-143.57;100.00;65101.44;5081821;27;45383;-44
2023/06/20 08:00:46;;;;;;;;;17.50;11.50;;;;;-143.57;100.00;65101.44;5099179;27;45240;-41
2023/06/20 08:03:12;;;;;;;;;16.50;13.75;;;;;-143.57;100.00;65101.44;5099057;27;45455;-44
2023/06/20 08:05:37;;;;;;;;;15.25;13.00;;;;;-143.57;100.00;65101.44;5097725;27;45372;-43
2023/06/20 08:08:03;;;;;;;;;13.00;11.50;;;;;-143.57;100.00;65101.44;5099304;27;45532;-43
2023/06/20 08:10:28;;;;;;;;;14.00;12.50;;;;;-143.57;100.00;65101.44;5098817;27;46113;-43
2023/06/20 08:12:53;;;;;;;;;18.00;15.50;;;;;-143.57;100.00;65101.44;5097982;27;47910;-42
2023/06/20 08:15:19;;;;;;;;;17.25;16.00;;;;;-143.57;100.00;65101.44;5098672;27;45338;-45
2023/06/20 08:17:44;;;;;;;;;14.75;12.25;;;;;-143.57;100.00;65101.44;5098990;27;45373;-42
2023/06/20 08:20:10;;;;;;;;;12.75;12.50;;;;;-143.57;100.00;65101.44;5098675;27;46469;-41
2023/06/20 08:22:36;;;;;;;;;15.75;13.50;;;;;-143.57;100.00;65101.44;5098583;27;45370;-43
2023/06/20 08:25:03;;;;;;;;;15.60;12.80;;;;;-143.57;100.00;65101.44;5098660;27;45341;-42
2023/06/20 08:27:28;;;;;;;;;18.60;14.40;;;;;-143.57;100.00;65101.44;5097787;27;45513;-42
2023/06/20 08:29:53;;;;;;;;;16.50;14.00;;;;;-143.57;100.00;65101.44;5098342;27;46028;-41
2023/06/20 08:32:19;;;;;;;;;17.00;15.00;;;;;-143.57;100.00;65101.44;5098672;27;45305;-42
2023/06/20 08:34:45;;;;;;;;;15.75;13.75;;;;;-143.57;100.00;65101.44;5098606;27;45353;-44
2023/06/20 08:37:11;;;;;;;;;14.60;12.60;;;;;-143.57;100.00;65101.44;5098726;27;45305;-44
2023/06/20 08:39:36;;;;;;;;;11.00;11.00;;;;;-143.57;100.00;65101.44;5098514;27;46069;-44
2023/06/20 08:42:03;;;;;;;;;15.50;13.00;;;;;-143.57;100.00;65101.44;5098473;27;45262;-44
2023/06/20 08:44:29;;;;;;;;;15.20;11.40;;;;;-143.57;100.00;65101.44;5098581;27;45200;-44
2023/06/20 08:46:57;;;;;;;;;16.75;13.25;;;;;-143.57;100.00;65101.44;5098948;27;45269;-43
2023/06/20 08:49:26;;;;;;;;;11.60;11.20;;;;;-143.57;100.00;65101.44;5098156;27;46244;-42
2023/06/20 08:51:53;;;;;;;;;13.60;13.20;;;;;-143.57;100.00;65101.44;5098691;27;45384;-44
2023/06/20 08:54:21;;;;;;;;;16.80;12.00;;;;;-143.57;100.00;65101.44;5097307;27;45246;-42
2023/06/20 08:56:48;;;;;;;;;18.00;18.00;;;;;-143.57;100.00;65101.44;5098571;27;45233;-42
2023/06/20 08:59:14;;;;;;;;;18.60;16.60;;;;;-143.57;100.00;65101.44;5098318;27;47051;-42
2023/06/20 09:01:39;;;;;;;;;14.50;12.25;;;;;-143.57;100.00;65101.44;5098371;27;45965;-42
2023/06/20 09:04:05;;;;;;;;;14.25;14.25;;;;;-143.57;100.00;65101.44;5098150;27;45924;-42
2023/06/20 09:06:39;;;;;;;;;13.00;12.75;;;;;-143.57;100.00;65101.44;5098077;27;45439;-42
2023/06/20 09:09:23;;;;;;;;;20.80;19.80;;;;;-143.57;100.00;65101.44;5097948;27;46403;-43
2023/06/20 09:11:57;;;;;;;;;13.40;10.80;;;;;-143.57;100.00;65101.44;5098248;27;45335;-42
2023/06/20 09:14:29;;;;;;;;;16.00;14.80;;;;;-143.57;100.00;65101.44;5098656;27;45524;-43
2023/06/20 09:16:56;;;;;;;;;21.40;14.20;;;;;-143.57;100.00;65101.44;5098477;27;45537;-45
2023/06/20 09:19:22;;;;;;;;;15.40;13.00;;;;;-143.57;100.00;65101.44;5097773;27;45294;-42
2023/06/20 09:21:48;;;;;;;;;16.00;16.00;;;;;-143.57;100.00;65101.44;5098250;27;45355;-42
2023/06/20 09:24:18;;;;;;;;;10.75;10.75;;;;;-143.57;100.00;65101.44;5096989;27;45314;-43
2023/06/20 09:26:45;;;;;;;;;12.20;11.80;;;;;-143.57;100.00;65101.44;5098254;27;45363;-41
2023/06/20 09:29:15;;;;;;;;;13.80;13.80;;;;;-143.57;100.00;65101.44;5079702;27;46137;-43
2023/06/20 09:31:49;;;;;;;;;14.20;11.60;;;;;-143.57;100.00;65101.44;5098178;27;45415;-43
2023/06/20 09:34:18;;;;;;;;;12.80;12.80;;;;;-143.57;100.00;65101.44;5097764;27;45340;-41
2023/06/20 09:36:47;;;;;;;;;12.40;12.40;;;;;-143.57;100.00;65101.44;5098319;27;45515;-44
2023/06/20 09:39:17;;;;;;;;;18.40;13.40;;;;;-143.57;100.00;65101.44;5097639;27;46118;-45
2023/06/20 09:41:52;;;;;;;;;15.20;15.20;;;;;-143.57;100.00;65101.44;5097816;27;45342;-43
2023/06/20 09:44:19;;;;;;;;;12.20;12.20;;;;;-143.57;100.00;65101.44;5098135;27;45317;-45
2023/06/20 09:46:45;;;;;;;;;14.60;12.40;;;;;-143.57;100.00;65101.44;5098087;27;45507;-43
2023/06/20 09:49:12;;;;;;;;;16.25;14.00;;;;;-143.57;100.00;65101.44;5097395;27;46155;-44
2023/06/20 09:52:02;;;;;;;;;14.00;14.00;;;;;-143.57;100.00;65101.44;5097560;27;45312;-44
2023/06/20 09:54:34;;;;;;;;;15.80;14.00;;;;;-143.57;100.00;65101.44;5097861;27;45191;-45
2023/06/20 09:57:07;;;;;;;;;14.00;12.40;;;;;-143.57;100.00;65101.44;5098064;27;45402;-46
2023/06/20 09:59:38;;;;;;;;;17.40;16.40;;;;;-143.57;100.00;65101.44;5097585;27;46374;-46
2023/06/20 10:02:07;;;;;;;;;16.00;14.00;;;;;-143.57;100.00;65101.44;5097772;27;45439;-42
2023/06/20 10:04:39;;;;;;;;;14.80;14.00;;;;;-143.57;100.00;65101.44;5097588;27;45391;-44
2023/06/20 10:07:04;;;;;;;;;20.20;15.00;;;;;-143.57;100.00;65101.44;5097854;27;45248;-43
2023/06/20 10:09:30;;;;;;;;;15.50;13.25;;;;;-143.57;100.00;65101.44;5097519;27;46192;-44
2023/06/20 10:11:56;;;;;;;;;11.40;11.00;;;;;-143.57;100.00;65101.44;5097205;27;45237;-43
2023/06/20 10:14:22;;;;;;;;;13.25;13.25;;;;;-143.57;100.00;65101.44;5097517;27;45357;-44
2023/06/20 10:16:51;;;;;;;;;14.25;11.00;;;;;-143.57;100.00;65101.44;5097532;27;45448;-44
2023/06/20 10:19:18;;;;;;;;;15.00;12.40;;;;;-143.57;100.00;65101.44;5096957;27;45440;-43
2023/06/20 10:21:59;;;;;;;;;12.20;12.20;;;;;-143.57;100.00;65101.44;5097406;27;45329;-44
2023/06/20 10:24:29;;;;;;;;;16.00;14.20;;;;;-143.57;100.00;65101.44;5097230;27;45395;-44
2023/06/20 10:26:59;;;;;;;;;10.00;9.00;;;;;-143.57;100.00;65101.44;5097532;27;45348;-45
2023/06/20 10:29:26;;;;;;;;;12.60;12.60;;;;;-143.57;100.00;65101.44;5096945;27;45463;-46
2023/06/20 10:31:56;;;;;;;;;11.00;11.00;;;;;-143.57;100.00;65101.44;5097214;27;45335;-44
2023/06/20 10:34:39;;;;;;;;;16.80;13.80;;;;;-143.57;100.00;65101.44;5096866;27;45231;-41
2023/06/20 10:37:15;;;;;;;;;14.20;11.20;;;;;-143.57;100.00;65101.44;5081984;27;45187;-41
2023/06/20 10:39:57;;;;;;;;;9.20;9.20;;;;;-143.57;100.00;65101.44;5100446;27;46880;-45
2023/06/20 10:42:34;;;;;;;;;11.00;10.00;;;;;-143.57;100.00;65101.44;5100329;27;45205;-42
2023/06/20 10:45:17;;;;;;;;;9.80;7.20;;;;;-143.57;100.00;65101.44;5100731;27;45287;-42
2023/06/20 10:47:42;;;;;;;;;11.00;10.80;;;;;-143.57;100.00;65101.44;5100929;27;45482;-43
2023/06/20 10:50:08;;;;;;;;;10.50;8.00;;;;;-143.57;100.00;65101.44;5100076;27;46240;-44
2023/06/20 10:52:35;;;;;;;;;7.40;7.40;;;;;-143.57;100.00;65101.44;5100282;27;45386;-43
2023/06/20 10:55:01;;;;;;;;;11.40;10.80;;;;;-143.57;100.00;65101.44;5100555;27;45341;-46
2023/06/20 10:57:28;;;;;;;;;11.00;9.20;;;;;-143.57;100.00;65101.44;5100516;27;45504;-43
2023/06/20 10:59:53;;;;;;;;;11.60;8.60;;;;;-143.57;100.00;65101.44;5100538;27;45402;-42
2023/06/20 11:02:19;;;;;;;;;8.00;8.00;;;;;-143.57;100.00;65101.44;5100302;27;45338;-45
2023/06/20 11:04:47;;;;;;;;;7.80;6.60;;;;;-143.57;100.00;65101.44;5100362;27;45366;-44
2023/06/20 11:07:13;;;;;;;;;13.80;10.00;;;;;-143.57;100.00;65101.44;5100690;27;45316;-42